createdAt,value
2019-03-20T00:01:08.052Z,11.93
2019-03-20T00:03:56.608Z,9.67
2019-03-20T00:06:38.474Z,12.50
2019-03-20T00:09:20.663Z,12.80
2019-03-20T00:12:02.818Z,11.97
2019-03-20T00:14:44.855Z,11.07
2019-03-20T00:17:26.674Z,9.53
2019-03-20T00:20:08.184Z,11.20
2019-03-20T00:22:50.172Z,7.93
2019-03-20T00:25:32.014Z,9.93
2019-03-20T00:28:13.846Z,12.70
2019-03-20T00:30:56.644Z,9.93
2019-03-20T00:33:38.955Z,12.50
2019-03-20T00:36:20.765Z,7.87
2019-03-20T00:39:02.209Z,10.13
2019-03-20T00:41:45.367Z,11.30
2019-03-20T00:44:27.672Z,9.90
2019-03-20T00:46:57.945Z,9.83
2019-03-20T00:49:39.862Z,8.03
2019-03-20T00:52:21.774Z,12.73
2019-03-20T00:55:03.614Z,12.00
2019-03-20T00:57:45.671Z,10.10
2019-03-20T01:00:27.570Z,10.03
2019-03-20T01:03:09.590Z,8.97
2019-03-20T01:05:39.929Z,9.47
2019-03-20T01:08:29.156Z,14.20
2019-03-20T01:11:11.411Z,12.43
2019-03-20T01:13:53.789Z,9.27
2019-03-20T01:16:36.020Z,10.13
2019-03-20T01:19:18.261Z,13.77
2019-03-20T01:22:00.260Z,6.87
2019-03-20T01:24:42.523Z,9.37
2019-03-20T01:27:24.510Z,7.73
2019-03-20T01:30:07.661Z,15.93
2019-03-20T01:32:39.822Z,7.77
2019-03-20T01:35:29.081Z,8.93
2019-03-20T01:38:10.658Z,8.57
2019-03-20T01:40:52.809Z,7.63
2019-03-20T01:43:35.066Z,6.33
2019-03-20T01:46:17.238Z,9.90
2019-03-20T01:48:58.942Z,9.30
2019-03-20T01:51:41.178Z,9.47
2019-03-20T01:54:23.341Z,7.63
2019-03-20T01:57:05.413Z,11.93
2019-03-20T01:59:49.346Z,6.77
2019-03-20T02:02:31.475Z,9.13
2019-03-20T02:05:13.538Z,9.60
2019-03-20T02:07:55.538Z,9.97
2019-03-20T02:10:37.519Z,9.30
2019-03-20T02:13:19.526Z,12.33
2019-03-20T02:16:01.530Z,6.83
2019-03-20T02:18:43.709Z,9.97
2019-03-20T02:21:25.916Z,10.47
2019-03-20T02:24:09.786Z,8.53
2019-03-20T02:26:51.806Z,8.90
2019-03-20T02:29:33.658Z,9.17
2019-03-20T02:32:15.975Z,6.83
2019-03-20T02:34:58.039Z,7.00
2019-03-20T02:37:39.591Z,7.93
2019-03-20T02:40:21.947Z,7.97
2019-03-20T02:43:03.943Z,9.93
2019-03-20T02:45:46.084Z,7.27
2019-03-20T02:48:28.389Z,6.37
2019-03-20T02:51:10.604Z,7.97
2019-03-20T02:53:53.304Z,8.47
2019-03-20T02:56:35.394Z,8.43
2019-03-20T02:59:18.117Z,12.73
2019-03-20T03:02:00.117Z,6.47
2019-03-20T03:04:44.046Z,9.23
2019-03-20T03:07:26.034Z,7.07
2019-03-20T03:10:08.378Z,10.13
2019-03-20T03:12:50.363Z,11.47
2019-03-20T03:15:32.520Z,9.20
2019-03-20T03:18:14.384Z,9.63
2019-03-20T03:20:56.259Z,7.53
2019-03-20T03:23:38.355Z,10.17
2019-03-20T03:26:20.477Z,12.40
2019-03-20T03:29:02.642Z,7.23
2019-03-20T03:31:44.674Z,10.07
2019-03-20T03:34:26.134Z,12.13
2019-03-20T03:37:09.247Z,14.43
2019-03-20T03:39:51.520Z,10.60
2019-03-20T03:42:33.775Z,6.63
2019-03-20T03:45:15.987Z,11.80
2019-03-20T03:47:57.663Z,9.10
2019-03-20T03:50:41.619Z,8.80
2019-03-20T03:53:23.667Z,8.77
2019-03-20T03:56:05.914Z,10.13
2019-03-20T03:58:48.063Z,7.00
2019-03-20T04:01:30.166Z,11.17
2019-03-20T04:04:13.830Z,7.60
2019-03-20T04:06:55.707Z,11.07
2019-03-20T04:09:37.656Z,7.60
2019-03-20T04:12:20.277Z,11.83
2019-03-20T04:15:03.395Z,10.20
2019-03-20T04:17:45.326Z,11.17
2019-03-20T04:20:27.494Z,13.60
2019-03-20T04:23:09.691Z,12.53
2019-03-20T04:25:51.586Z,14.10
2019-03-20T04:28:33.488Z,10.90
2019-03-20T04:31:15.761Z,13.30
2019-03-20T04:33:57.759Z,10.40
2019-03-20T04:36:47.743Z,12.63
2019-03-20T04:39:27.313Z,12.43
2019-03-20T04:42:09.481Z,9.70
2019-03-20T04:44:52.825Z,11.87
2019-03-20T04:47:34.621Z,12.80
2019-03-20T04:50:16.404Z,9.50
2019-03-20T04:52:58.272Z,11.43
2019-03-20T04:55:40.150Z,8.53
2019-03-20T04:58:21.894Z,10.87
2019-03-20T05:01:03.578Z,11.00
2019-03-20T05:03:45.823Z,10.80
2019-03-20T05:06:28.018Z,9.60
2019-03-20T05:08:58.278Z,9.93
2019-03-20T05:11:47.658Z,12.30
2019-03-20T05:14:30.087Z,9.03
2019-03-20T05:17:12.253Z,10.90
2019-03-20T05:19:54.858Z,11.77
2019-03-20T05:22:36.906Z,14.13
2019-03-20T05:25:18.825Z,13.57
2019-03-20T05:28:00.512Z,11.23
2019-03-20T05:30:42.436Z,13.17
2019-03-20T05:33:24.077Z,12.87
2019-03-20T05:36:05.941Z,15.40
2019-03-20T05:38:48.254Z,12.70
2019-03-20T05:41:31.141Z,14.33
2019-03-20T05:44:03.048Z,9.33
2019-03-20T05:46:45.240Z,16.27
2019-03-20T05:49:27.381Z,10.77
2019-03-20T05:52:09.490Z,14.13
2019-03-20T05:54:51.411Z,11.97
2019-03-20T05:57:33.434Z,13.67
2019-03-20T06:00:03.690Z,15.87
2019-03-20T06:02:45.888Z,11.57
2019-03-20T06:05:27.997Z,11.80
2019-03-20T06:08:09.995Z,14.77
2019-03-20T06:10:51.878Z,14.60
2019-03-20T06:13:33.754Z,18.77
2019-03-20T06:16:03.991Z,15.83
2019-03-20T06:18:46.231Z,9.77
2019-03-20T06:21:28.262Z,12.63
2019-03-20T06:24:10.306Z,17.13
2019-03-20T06:26:52.466Z,10.10
2019-03-20T06:29:34.717Z,17.33
2019-03-20T06:32:05.298Z,15.70
2019-03-20T06:34:54.570Z,12.73
2019-03-20T06:37:36.343Z,14.83
2019-03-20T06:40:07.235Z,14.37
2019-03-20T06:42:49.526Z,11.20
2019-03-20T06:45:31.442Z,14.27
2019-03-20T06:48:13.095Z,15.07
2019-03-20T06:50:54.850Z,12.87
2019-03-20T06:53:36.755Z,12.63
2019-03-20T06:56:07.920Z,14.60
2019-03-20T06:58:51.067Z,15.27
2019-03-20T07:01:32.974Z,13.03
2019-03-20T07:04:14.518Z,14.87
2019-03-20T07:06:56.104Z,11.97
2019-03-20T07:09:38.169Z,12.40
2019-03-20T07:12:19.683Z,14.70
2019-03-20T07:15:02.118Z,11.97
2019-03-20T07:17:44.262Z,12.93
2019-03-20T07:20:14.535Z,11.07
2019-03-20T07:23:04.014Z,14.03
2019-03-20T07:25:46.200Z,14.17
2019-03-20T07:28:28.161Z,14.73
2019-03-20T07:31:15.314Z,13.30
2019-03-20T07:33:53.781Z,12.30
2019-03-20T07:36:37.773Z,14.57
2019-03-20T07:39:20.099Z,11.77
2019-03-20T07:42:01.996Z,14.00
2019-03-20T07:44:45.451Z,11.00
2019-03-20T07:47:29.133Z,10.37
2019-03-20T07:50:11.095Z,15.33
2019-03-20T07:52:52.718Z,9.63
2019-03-20T07:55:34.603Z,17.77
2019-03-20T07:58:16.573Z,18.37
2019-03-20T08:00:58.481Z,13.50
2019-03-20T08:03:41.214Z,12.83
2019-03-20T08:06:11.463Z,8.73
2019-03-20T08:09:02.344Z,15.83
2019-03-20T08:11:44.509Z,11.17
2019-03-20T08:14:26.527Z,10.50
2019-03-20T08:17:08.591Z,11.40
2019-03-20T08:19:50.571Z,14.13
2019-03-20T08:22:32.946Z,15.67
2019-03-20T08:25:15.142Z,14.60
2019-03-20T08:27:57.205Z,9.20
2019-03-20T08:30:39.203Z,14.20
2019-03-20T08:33:09.426Z,16.03
2019-03-20T08:35:58.732Z,10.43
2019-03-20T08:38:40.278Z,13.27
2019-03-20T08:41:22.470Z,14.33
2019-03-20T08:44:04.686Z,12.07
2019-03-20T08:46:47.067Z,16.43
2019-03-20T08:49:29.242Z,10.77
2019-03-20T08:52:11.633Z,11.60
2019-03-20T08:54:53.564Z,14.10
2019-03-20T08:57:36.011Z,15.03
2019-03-20T09:00:18.277Z,15.83
2019-03-20T09:03:00.374Z,14.30
2019-03-20T09:05:42.570Z,15.40
2019-03-20T09:08:29.397Z,13.40
2019-03-20T09:11:08.741Z,10.10
2019-03-20T09:13:50.990Z,10.57
2019-03-20T09:16:33.438Z,14.37
2019-03-20T09:19:16.236Z,11.17
2019-03-20T09:22:00.185Z,13.27
2019-03-20T09:24:42.055Z,7.27
2019-03-20T09:27:23.828Z,11.30
2019-03-20T09:30:06.057Z,12.70
2019-03-20T09:32:48.072Z,10.97
2019-03-20T09:35:33.335Z,11.97
2019-03-20T09:38:15.688Z,11.03
2019-03-20T09:40:57.858Z,9.03
2019-03-20T09:43:40.015Z,10.57
2019-03-20T09:46:22.086Z,11.43
2019-03-20T09:49:03.810Z,9.03
2019-03-20T09:51:46.017Z,9.07
2019-03-20T09:54:28.250Z,8.03
2019-03-20T09:57:10.140Z,8.67
2019-03-20T09:59:52.325Z,8.63
2019-03-20T10:02:34.634Z,6.23
2019-03-20T10:05:16.701Z,5.20
2019-03-20T10:07:58.782Z,9.20
2019-03-20T10:10:40.811Z,7.60
2019-03-20T10:13:22.784Z,9.47
2019-03-20T10:16:04.895Z,6.43
2019-03-20T10:18:47.030Z,7.10
2019-03-20T10:21:28.911Z,7.20
2019-03-20T10:24:10.986Z,8.27
2019-03-20T10:26:53.098Z,8.33
2019-03-20T10:29:35.133Z,6.57
2019-03-20T10:32:17.575Z,4.80
2019-03-20T10:34:59.619Z,8.93
2019-03-20T10:37:42.658Z,7.17
2019-03-20T10:40:24.915Z,6.27
2019-03-20T10:43:07.035Z,6.53
2019-03-20T10:45:51.919Z,5.77
2019-03-20T10:48:22.482Z,5.30
2019-03-20T10:51:06.313Z,8.60
2019-03-20T10:53:48.504Z,9.20
2019-03-20T10:56:30.630Z,4.77
2019-03-20T10:59:12.956Z,13.07
2019-03-20T11:01:55.234Z,8.00
2019-03-20T11:04:37.249Z,4.73
2019-03-20T11:07:19.214Z,7.63
2019-03-20T11:10:01.296Z,6.97
2019-03-20T11:12:43.432Z,4.97
2019-03-20T11:15:25.704Z,5.70
2019-03-20T11:18:07.500Z,6.67
2019-03-20T11:20:49.572Z,5.97
2019-03-20T11:23:31.813Z,5.20
2019-03-20T11:26:13.790Z,4.70
2019-03-20T11:28:56.215Z,6.17
2019-03-20T11:31:26.511Z,5.60
2019-03-20T11:34:08.634Z,6.57
2019-03-20T11:36:50.491Z,5.27
2019-03-20T11:39:32.902Z,6.57
2019-03-20T11:42:14.994Z,5.93
2019-03-20T11:44:57.182Z,4.63
2019-03-20T11:47:27.429Z,5.10
2019-03-20T11:50:17.990Z,4.23
2019-03-20T11:53:00.299Z,5.23
2019-03-20T11:55:42.214Z,6.53
2019-03-20T11:58:24.366Z,6.33
2019-03-20T12:01:06.371Z,6.77
2019-03-20T12:03:48.722Z,9.07
2019-03-20T12:06:30.870Z,5.87
2019-03-20T12:09:12.546Z,7.57
2019-03-20T12:11:54.334Z,8.60
2019-03-20T12:14:36.402Z,5.00
2019-03-20T12:17:20.290Z,5.20
2019-03-20T12:20:02.286Z,4.17
2019-03-20T12:22:44.431Z,4.13
2019-03-20T12:25:26.684Z,6.97
2019-03-20T12:28:08.882Z,5.53
2019-03-20T12:30:51.132Z,5.87
2019-03-20T12:33:33.286Z,4.80
2019-03-20T12:36:15.454Z,4.70
2019-03-20T12:38:57.080Z,5.37
2019-03-20T12:41:39.414Z,3.80
2019-03-20T12:44:21.609Z,5.17
2019-03-20T12:47:03.776Z,3.80
2019-03-20T12:49:46.081Z,6.50
2019-03-20T12:52:28.310Z,6.50
2019-03-20T12:55:10.378Z,3.20
2019-03-20T12:57:52.320Z,3.77
2019-03-20T13:00:34.466Z,6.70
2019-03-20T13:03:16.761Z,4.80
2019-03-20T13:05:46.998Z,3.40
2019-03-20T13:08:17.230Z,4.70
2019-03-20T13:10:59.170Z,4.23
2019-03-20T13:13:41.114Z,4.03
2019-03-20T13:16:24.281Z,6.33
2019-03-20T13:19:05.933Z,5.63
2019-03-20T13:21:47.733Z,4.67
2019-03-20T13:24:29.801Z,3.53
2019-03-20T13:27:11.498Z,3.40
2019-03-20T13:29:53.522Z,3.97
2019-03-20T13:32:35.592Z,2.20
2019-03-20T13:35:06.210Z,3.33
2019-03-20T13:37:36.473Z,2.77
2019-03-20T13:40:25.832Z,2.33
2019-03-20T13:43:07.943Z,4.13
2019-03-20T13:45:50.263Z,2.83
2019-03-20T13:48:32.602Z,3.70
2019-03-20T13:51:14.375Z,5.30
2019-03-20T13:53:55.811Z,2.87
2019-03-20T13:56:37.868Z,1.70
2019-03-20T13:59:19.969Z,3.13
2019-03-20T14:02:01.770Z,3.03
2019-03-20T14:04:43.585Z,2.80
2019-03-20T14:07:25.399Z,2.40
2019-03-20T14:10:07.283Z,3.07
2019-03-20T14:12:37.999Z,2.33
2019-03-20T14:15:27.548Z,4.30
2019-03-20T14:18:09.229Z,2.90
2019-03-20T14:20:51.090Z,4.90
2019-03-20T14:23:32.765Z,3.93
2019-03-20T14:26:16.804Z,5.17
2019-03-20T14:28:58.635Z,2.70
2019-03-20T14:31:40.548Z,3.70
2019-03-20T14:34:22.744Z,3.97
2019-03-20T14:37:04.269Z,3.43
2019-03-20T14:39:46.146Z,4.63
2019-03-20T14:42:28.434Z,3.57
2019-03-20T14:45:10.378Z,3.53
2019-03-20T14:47:52.880Z,3.17
2019-03-20T14:50:36.535Z,2.53
2019-03-20T14:53:18.490Z,3.10
2019-03-20T14:56:00.425Z,2.00
2019-03-20T14:58:42.230Z,3.57
2019-03-20T15:01:24.410Z,2.50
2019-03-20T15:04:06.167Z,5.23
2019-03-20T15:06:48.182Z,2.20
2019-03-20T15:09:30.218Z,2.27
2019-03-20T15:12:12.185Z,2.33
2019-03-20T15:14:42.536Z,5.60
2019-03-20T15:17:31.783Z,2.07
2019-03-20T15:20:13.634Z,3.03
2019-03-20T15:22:55.550Z,5.53
2019-03-20T15:25:37.662Z,6.30
2019-03-20T15:28:20.022Z,3.30
2019-03-20T15:31:02.057Z,1.73
2019-03-20T15:33:44.347Z,3.40
2019-03-20T15:36:26.353Z,2.13
2019-03-20T15:39:08.472Z,1.97
2019-03-20T15:41:50.606Z,2.03
2019-03-20T15:44:32.598Z,2.23
2019-03-20T15:47:14.919Z,3.43
2019-03-20T15:49:56.782Z,2.20
2019-03-20T15:52:39.050Z,5.07
2019-03-20T15:55:21.086Z,3.77
2019-03-20T15:58:02.881Z,4.10
2019-03-20T16:00:44.680Z,4.30
2019-03-20T16:03:26.659Z,3.83
2019-03-20T16:06:08.687Z,5.00
2019-03-20T16:08:50.801Z,4.67
2019-03-20T16:11:21.047Z,3.33
2019-03-20T16:14:10.351Z,4.77
2019-03-20T16:16:51.913Z,3.43
2019-03-20T16:19:34.182Z,2.50
2019-03-20T16:22:16.079Z,3.10
2019-03-20T16:24:58.245Z,3.10
2019-03-20T16:27:40.410Z,3.53
2019-03-20T16:30:22.206Z,4.27
2019-03-20T16:33:04.355Z,8.33
2019-03-20T16:35:46.208Z,3.10
2019-03-20T16:38:28.216Z,3.37
2019-03-20T16:41:16.729Z,4.33
2019-03-20T16:43:54.147Z,3.23
2019-03-20T16:46:36.079Z,3.93
2019-03-20T16:49:17.891Z,4.10
2019-03-20T16:51:59.745Z,5.03
2019-03-20T16:54:41.648Z,3.40
2019-03-20T16:57:23.810Z,4.00
2019-03-20T16:59:54.182Z,2.63
2019-03-20T17:02:43.470Z,2.57
2019-03-20T17:05:25.724Z,3.87
2019-03-20T17:08:09.245Z,5.03
2019-03-20T17:10:51.270Z,4.93
2019-03-20T17:13:33.586Z,7.67
2019-03-20T17:16:16.067Z,6.67
2019-03-20T17:18:58.063Z,4.93
2019-03-20T17:21:39.958Z,5.97
2019-03-20T17:24:22.134Z,5.77
2019-03-20T17:26:52.431Z,6.80
2019-03-20T17:29:41.801Z,5.90
2019-03-20T17:32:23.689Z,4.67
2019-03-20T17:35:05.838Z,5.10
2019-03-20T17:37:47.897Z,5.60
2019-03-20T17:40:30.015Z,4.67
2019-03-20T17:43:11.455Z,7.70
2019-03-20T17:45:53.510Z,6.80
2019-03-20T17:48:35.393Z,5.43
2019-03-20T17:51:17.619Z,5.43
2019-03-20T17:53:59.473Z,7.33
2019-03-20T17:56:41.634Z,6.43
2019-03-20T17:59:23.163Z,6.23
2019-03-20T18:02:04.988Z,4.27
2019-03-20T18:04:47.167Z,7.50
2019-03-20T18:07:28.927Z,8.77
2019-03-20T18:10:11.068Z,7.30
2019-03-20T18:12:53.182Z,11.03
2019-03-20T18:15:35.047Z,7.73
2019-03-20T18:18:17.191Z,8.10
2019-03-20T18:20:59.206Z,5.83
2019-03-20T18:23:41.327Z,7.10
2019-03-20T18:26:23.641Z,5.83
2019-03-20T18:29:05.608Z,6.77
2019-03-20T18:31:47.826Z,6.53
2019-03-20T18:34:30.728Z,6.50
2019-03-20T18:37:13.065Z,5.27
2019-03-20T18:39:55.336Z,5.90
2019-03-20T18:42:36.718Z,4.40
2019-03-20T18:45:18.667Z,7.87
2019-03-20T18:48:01.117Z,6.17
2019-03-20T18:50:42.800Z,8.10
2019-03-20T18:53:25.091Z,7.07
2019-03-20T18:56:07.212Z,8.37
2019-03-20T18:58:49.433Z,7.30
2019-03-20T19:01:31.636Z,6.60
2019-03-20T19:04:02.062Z,10.13
2019-03-20T19:06:51.393Z,7.43
2019-03-20T19:09:35.419Z,8.47
2019-03-20T19:12:17.058Z,7.23
2019-03-20T19:14:59.069Z,8.37
2019-03-20T19:17:41.042Z,6.37
2019-03-20T19:20:26.062Z,9.47
2019-03-20T19:23:08.148Z,8.37
2019-03-20T19:25:50.130Z,8.07
2019-03-20T19:28:32.953Z,8.23
2019-03-20T19:31:03.230Z,8.13
2019-03-20T19:33:45.443Z,6.23
2019-03-20T19:36:27.662Z,8.60
2019-03-20T19:39:10.043Z,7.83
2019-03-20T19:41:52.053Z,7.60
2019-03-20T19:44:34.023Z,9.90
2019-03-20T19:47:16.070Z,7.97
2019-03-20T19:49:57.946Z,7.00
2019-03-20T19:52:39.975Z,9.47
2019-03-20T19:55:22.213Z,7.80
2019-03-20T19:58:04.402Z,6.87
2019-03-20T20:00:46.759Z,9.13
2019-03-20T20:03:28.470Z,9.90
2019-03-20T20:06:11.444Z,9.77
2019-03-20T20:08:53.255Z,10.33
2019-03-20T20:11:35.139Z,9.37
2019-03-20T20:14:17.182Z,9.83
2019-03-20T20:17:00.471Z,15.20
2019-03-20T20:19:42.410Z,9.67
2019-03-20T20:22:24.444Z,11.37
2019-03-20T20:25:06.570Z,10.67
2019-03-20T20:27:48.931Z,9.07
2019-03-20T20:30:31.378Z,15.60
2019-03-20T20:33:13.586Z,10.90
2019-03-20T20:35:56.337Z,8.77
2019-03-20T20:38:38.626Z,10.23
2019-03-20T20:41:20.841Z,9.77
2019-03-20T20:44:03.322Z,11.90
2019-03-20T20:46:47.202Z,9.40
2019-03-20T20:49:29.453Z,8.90
2019-03-20T20:52:19.115Z,9.93
2019-03-20T20:54:54.924Z,10.70
2019-03-20T20:57:37.156Z,13.00
2019-03-20T21:00:19.090Z,10.33
2019-03-20T21:03:02.038Z,8.77
2019-03-20T21:05:44.186Z,10.00
2019-03-20T21:08:26.487Z,8.80
2019-03-20T21:11:08.967Z,12.67
2019-03-20T21:13:51.726Z,9.53
2019-03-20T21:16:33.732Z,10.53
2019-03-20T21:19:16.467Z,7.70
2019-03-20T21:21:59.466Z,8.97
2019-03-20T21:24:41.398Z,8.97
2019-03-20T21:27:25.469Z,9.93
2019-03-20T21:30:12.221Z,10.23
2019-03-20T21:32:43.698Z,9.77
2019-03-20T21:35:52.156Z,8.07
2019-03-20T21:38:20.723Z,8.80
2019-03-20T21:41:02.966Z,11.80
2019-03-20T21:43:58.887Z,9.97
2019-03-20T21:46:42.472Z,9.40
2019-03-20T21:49:24.487Z,10.90
2019-03-20T21:52:06.386Z,9.80
2019-03-20T21:54:48.683Z,10.80
2019-03-20T21:57:57.088Z,10.03
2019-03-20T22:00:39.591Z,12.53
2019-03-20T22:03:23.093Z,10.50
2019-03-20T22:06:32.621Z,10.20
2019-03-20T22:09:20.236Z,11.13
2019-03-20T22:12:02.287Z,11.43
2019-03-20T22:14:44.327Z,10.00
2019-03-20T22:17:53.016Z,12.00
2019-03-20T22:20:44.620Z,13.60
2019-03-20T22:23:26.905Z,12.87
2019-03-20T22:26:08.964Z,10.03
2019-03-20T22:28:51.140Z,13.83
2019-03-20T22:31:33.349Z,10.80
2019-03-20T22:34:15.366Z,10.40
2019-03-20T22:36:57.635Z,10.43
2019-03-20T22:39:39.675Z,9.43
2019-03-20T22:42:21.223Z,11.23
2019-03-20T22:45:02.987Z,9.00
2019-03-20T22:47:44.888Z,10.50
2019-03-20T22:50:26.731Z,10.20
2019-03-20T22:53:08.949Z,9.53
2019-03-20T22:55:51.054Z,9.23
2019-03-20T22:58:32.932Z,10.87
2019-03-20T23:01:14.814Z,9.47
2019-03-20T23:03:56.662Z,10.37
2019-03-20T23:06:38.436Z,9.40
2019-03-20T23:09:20.371Z,10.40
2019-03-20T23:12:02.510Z,10.60
2019-03-20T23:14:44.456Z,9.10
2019-03-20T23:17:27.755Z,8.33
2019-03-20T23:20:09.954Z,9.87
2019-03-20T23:22:52.006Z,10.03
2019-03-20T23:25:36.051Z,10.47
2019-03-20T23:28:18.805Z,9.67
2019-03-20T23:31:00.868Z,9.60
2019-03-20T23:33:31.838Z,10.90
2019-03-20T23:36:13.770Z,10.23
2019-03-20T23:38:55.762Z,8.60
2019-03-20T23:41:37.739Z,9.57
2019-03-20T23:44:20.797Z,11.50
2019-03-20T23:47:02.841Z,10.17
2019-03-20T23:49:33.763Z,8.67
2019-03-20T23:52:23.330Z,9.90
2019-03-20T23:55:06.961Z,7.80
2019-03-20T23:57:37.701Z,11.53
